aviador You're here:

PAII Decoded Metar

EGEGIK in AK, USA
Report Time2018-06-17 20:56:00
UTC Time2018-06-17 21:42:45
Flight Rules mvfr MVFR
Wind130° at 23 Gusting to 31 kt
W.Decomp.*RWY 12: 22.8 kt HW 3.2 kt LCW
RWY 03: 3.2 kt HW 22.8 kt RCW
W.Rank130° ranks 2
Current wind is above 130° avg. (13.7)
Visibility9999 m
Phenomena:N/A
Clouds:Broken 024 Hf
Expected CloudBase > 2,400 ft AGL from Temp-Dew spread
Ceiling2,400 ft
Temp13°C (ISA -2)
Dew Point07°C (67% RH)
AAT4.0°C
QNH1005 hPa
Density Alt292 ft
Elevation98 ft
Report Wrong Elevation
Raw Report
PAII 172056Z AUTO 13023G31KT 10SM BKN024 13/07 A2968 RMK AO2 PK
WND 16036/2037 SLP053 T01280067 53014=

Extra information for PAII:More info

Metar Taf Metar & Taf Last 4 Metars F.Rules Stats Wind Profile Meteogram Temp Stats Airport Information Weather charts Add Link Nearby VenuesMetar ALERT Operation Metar Decoded Social comments

AIRNAV info for PAII